Terminal Aerodrome Forecast
Issued by NWS

Home | Current Version | Previous Version | Text Only | Print | Product List | Glossary On
Versions: 1 2 3 4 5 6 7 8 9 10 11 12 13 14 15 16 17
000
FTUS43 KMPX 250500
TAFRNH
TAF
KRNH 250528Z 2506/2606 26004KT 3SM BR SCT015
     FM250700 VRB03KT 2SM BR SCT002
      TEMPO 2507/2511 1SM BR BKN006
     FM251400 28008KT 6SM BR BKN015
     FM251800 31012G19KT P6SM SCT020 SCT100
     FM260000 02007KT P6SM SKC=

USA.gov is the U.S. government's official web portal to all federal, state and local government web resources and services.